Time;durP1;ratioP1;P1;durP2;ratioP2;P2;SDS_P1;SDS_P2;PMS_P1;PMS_P2;Temp;Humidity;BMP_temperature;BMP_pressure;BME280_temperature;BME280_humidity;BME280_pressure;Samples;Min_cycle;Max_cycle;Signal;HPM_P1;HPM_P2
2022/09/28 00:02:02;;;;;;;;;;;8.80;99.90;;;;;;5074587;28;19924;-65
2022/09/28 00:04:28;;;;;;;;;;;8.80;99.90;;;;;;5084354;28;20020;-66
2022/09/28 00:06:55;;;;;;;;;;;8.80;99.90;;;;;;5080661;28;19971;-66
2022/09/28 00:09:22;;;;;;;;;;;8.80;99.90;;;;;;5084853;28;20423;-66
2022/09/28 00:11:50;;;;;;;;;;;8.90;99.90;;;;;;5088173;28;19938;-66
2022/09/28 00:14:16;;;;;;;;;;;8.90;99.90;;;;;;5084685;28;20043;-66
2022/09/28 00:16:43;;;;;;;;;;;9.00;99.90;;;;;;5082440;28;19928;-67
2022/09/28 00:19:11;;;;;;;;;;;9.00;99.90;;;;;;5085438;28;20023;-67
2022/09/28 00:21:38;;;;;;;;;;;9.00;99.90;;;;;;5080686;28;19963;-68
2022/09/28 00:24:14;;;;;;;;;;;9.00;99.90;;;;;;5083329;28;20019;-67
2022/09/28 00:26:43;;;;;;;;;;;9.00;99.90;;;;;;5081809;28;19931;-67
2022/09/28 00:29:15;;;;;;;;;;;9.00;99.90;;;;;;5084665;28;20023;-67
2022/09/28 00:31:42;;;;;;;;;;;9.00;99.90;;;;;;5079028;28;19948;-68
2022/09/28 00:34:09;;;;;;;;;;;9.00;99.90;;;;;;5092812;28;19924;-66
2022/09/28 00:36:36;;;;;;;;;;;9.00;99.90;;;;;;5084900;28;19983;-66
2022/09/28 00:39:04;;;;;;;;;;;9.10;99.90;;;;;;5075327;28;20470;-66
2022/09/28 00:41:31;;;;;;;;;;;9.10;99.90;;;;;;5076023;28;20342;-67
2022/09/28 00:44:12;;;;;;;;;;;9.00;99.90;;;;;;5079184;28;19960;-66
2022/09/28 00:46:41;;;;;;;;;;;9.00;99.90;;;;;;5089156;28;19971;-66
2022/09/28 00:49:11;;;;;;;;;;;9.00;99.90;;;;;;5076077;28;20007;-66
2022/09/28 00:51:38;;;;;;;;;;;9.10;99.90;;;;;;5093827;28;19924;-66
2022/09/28 00:54:06;;;;;;;;;;;9.00;99.90;;;;;;5084538;28;19960;-68
2022/09/28 00:56:35;;;;;;;;;;;9.00;99.90;;;;;;5080671;28;20353;-65
2022/09/28 00:59:03;;;;;;;;;;;9.00;99.90;;;;;;5077880;28;19971;-66
2022/09/28 01:01:30;;;;;;;;;;;9.00;99.90;;;;;;5091399;28;19924;-66
2022/09/28 01:04:00;;;;;;;;;;;9.00;99.90;;;;;;5087484;28;19971;-66
2022/09/28 01:06:29;;;;;;;;;;;9.00;99.90;;;;;;5083520;28;19924;-67
2022/09/28 01:08:58;;;;;;;;;;;8.90;99.90;;;;;;5082223;28;19924;-65
2022/09/28 01:11:25;;;;;;;;;;;8.90;99.90;;;;;;5087518;28;20027;-66
2022/09/28 01:13:54;;;;;;;;;;;8.90;99.90;;;;;;5091664;28;20019;-65
2022/09/28 01:16:25;;;;;;;;;;;8.90;99.90;;;;;;5092666;28;19924;-66
2022/09/28 01:18:59;;;;;;;;;;;8.90;99.90;;;;;;5088007;28;19924;-65
2022/09/28 01:21:28;;;;;;;;;;;8.80;99.90;;;;;;5083887;28;19924;-66
2022/09/28 01:24:09;;;;;;;;;;;8.80;99.90;;;;;;5084652;28;19924;-67
2022/09/28 01:26:43;;;;;;;;;;;8.80;99.90;;;;;;5093441;28;19924;-66
2022/09/28 01:29:20;;;;;;;;;;;8.70;99.90;;;;;;5087898;28;19929;-65
2022/09/28 01:31:49;;;;;;;;;;;8.70;99.90;;;;;;5085265;28;19924;-67
2022/09/28 01:34:19;;;;;;;;;;;8.60;99.90;;;;;;5081633;28;19928;-66
2022/09/28 01:36:49;;;;;;;;;;;8.60;99.90;;;;;;5075583;28;19932;-66
2022/09/28 01:39:18;;;;;;;;;;;8.50;99.90;;;;;;5075151;28;19928;-66
2022/09/28 01:41:48;;;;;;;;;;;8.50;99.90;;;;;;5086638;28;19924;-66
2022/09/28 01:44:17;;;;;;;;;;;8.50;99.90;;;;;;5086125;28;19932;-66
2022/09/28 01:46:46;;;;;;;;;;;8.60;99.90;;;;;;5092481;28;19924;-66
2022/09/28 01:49:17;;;;;;;;;;;8.60;99.90;;;;;;5075659;28;19928;-65
2022/09/28 01:51:46;;;;;;;;;;;8.50;99.90;;;;;;5086131;28;19924;-66
2022/09/28 01:54:14;;;;;;;;;;;8.50;99.90;;;;;;5086074;28;19928;-66
2022/09/28 01:56:44;;;;;;;;;;;8.50;99.90;;;;;;5087842;28;19931;-66
2022/09/28 01:59:14;;;;;;;;;;;8.50;99.90;;;;;;5088485;28;19933;-67
2022/09/28 02:01:41;;;;;;;;;;;8.50;99.90;;;;;;5086064;28;19924;-66
2022/09/28 02:04:11;;;;;;;;;;;8.40;99.90;;;;;;5088514;28;19977;-66
2022/09/28 02:06:40;;;;;;;;;;;8.40;99.90;;;;;;5088540;28;19932;-66
2022/09/28 02:09:10;;;;;;;;;;;8.40;99.90;;;;;;5088301;28;19930;-66
2022/09/28 02:11:38;;;;;;;;;;;8.30;99.90;;;;;;5082892;28;19931;-66
2022/09/28 02:14:06;;;;;;;;;;;8.30;99.90;;;;;;5086265;28;19924;-66
2022/09/28 02:16:36;;;;;;;;;;;8.30;99.90;;;;;;5081300;28;19948;-66
2022/09/28 02:19:03;;;;;;;;;;;8.40;99.90;;;;;;5074023;28;19931;-67
2022/09/28 02:21:32;;;;;;;;;;;8.40;99.90;;;;;;5084440;28;19925;-67
2022/09/28 02:24:01;;;;;;;;;;;8.40;99.90;;;;;;5082908;28;19924;-67
2022/09/28 02:26:30;;;;;;;;;;;8.30;99.90;;;;;;5088289;28;19931;-67
2022/09/28 02:28:57;;;;;;;;;;;8.30;99.90;;;;;;5085952;28;20401;-67
2022/09/28 02:31:25;;;;;;;;;;;8.20;99.90;;;;;;5087991;28;19924;-66
2022/09/28 02:33:54;;;;;;;;;;;8.20;99.90;;;;;;5086729;28;19932;-70
2022/09/28 02:36:21;;;;;;;;;;;8.10;99.90;;;;;;5086334;28;19928;-67
2022/09/28 02:38:48;;;;;;;;;;;8.10;99.90;;;;;;5088300;28;19931;-67
2022/09/28 02:41:21;;;;;;;;;;;8.20;99.90;;;;;;5081131;28;19924;-67
2022/09/28 02:43:52;;;;;;;;;;;8.20;99.90;;;;;;5089102;28;19931;-66
2022/09/28 02:46:27;;;;;;;;;;;8.20;99.90;;;;;;5079647;28;19930;-67
2022/09/28 02:49:01;;;;;;;;;;;8.20;99.90;;;;;;5072942;28;19935;-67
2022/09/28 02:51:33;;;;;;;;;;;8.30;99.90;;;;;;5084318;28;19932;-67
2022/09/28 02:54:15;;;;;;;;;;;8.30;99.90;;;;;;5082833;28;19925;-67
2022/09/28 02:56:50;;;;;;;;;;;8.30;99.90;;;;;;5071307;28;19925;-67
2022/09/28 02:59:24;;;;;;;;;;;8.40;99.90;;;;;;5076231;28;19929;-66
2022/09/28 03:01:55;;;;;;;;;;;8.30;99.90;;;;;;5075751;28;19930;-67
2022/09/28 03:04:28;;;;;;;;;;;8.40;99.90;;;;;;5088898;28;19924;-66
2022/09/28 03:06:58;;;;;;;;;;;8.40;99.90;;;;;;5081280;28;19935;-66
2022/09/28 03:09:26;;;;;;;;;;;8.40;99.90;;;;;;5083089;28;19930;-66
2022/09/28 03:11:55;;;;;;;;;;;8.40;99.90;;;;;;5088597;28;20272;-66
2022/09/28 03:14:22;;;;;;;;;;;8.40;99.90;;;;;;5085137;28;19924;-66
2022/09/28 03:16:49;;;;;;;;;;;8.30;99.90;;;;;;5085166;28;19924;-67
2022/09/28 03:19:16;;;;;;;;;;;8.30;99.90;;;;;;5084489;28;19924;-66
2022/09/28 03:21:44;;;;;;;;;;;8.30;99.90;;;;;;5081790;28;19925;-67
2022/09/28 03:24:11;;;;;;;;;;;8.20;99.90;;;;;;5083572;28;21217;-66
2022/09/28 03:26:37;;;;;;;;;;;8.20;99.90;;;;;;5085664;28;20019;-67
2022/09/28 03:29:04;;;;;;;;;;;8.10;99.90;;;;;;5082558;28;19936;-66
2022/09/28 03:31:31;;;;;;;;;;;8.10;99.90;;;;;;5088407;28;19930;-66
2022/09/28 03:33:57;;;;;;;;;;;8.20;99.90;;;;;;5088124;28;20003;-66
2022/09/28 03:36:24;;;;;;;;;;;8.20;99.90;;;;;;5082965;28;19983;-66
2022/09/28 03:38:53;;;;;;;;;;;8.10;99.90;;;;;;5076650;28;19931;-66
2022/09/28 03:41:20;;;;;;;;;;;8.10;99.90;;;;;;5076382;28;20294;-66
2022/09/28 03:43:47;;;;;;;;;;;8.10;99.90;;;;;;5090324;28;20393;-66
2022/09/28 03:46:14;;;;;;;;;;;8.10;99.90;;;;;;5082991;28;19924;-65
2022/09/28 03:48:41;;;;;;;;;;;8.00;99.90;;;;;;5082042;28;19931;-66
2022/09/28 03:51:09;;;;;;;;;;;8.00;99.90;;;;;;5085779;28;20094;-66
2022/09/28 03:53:36;;;;;;;;;;;7.90;99.90;;;;;;5080343;28;19931;-66
2022/09/28 03:56:05;;;;;;;;;;;7.80;99.90;;;;;;5081094;28;20397;-66
2022/09/28 03:58:32;;;;;;;;;;;7.80;99.90;;;;;;5087506;28;19967;-66
2022/09/28 04:01:01;;;;;;;;;;;7.70;99.90;;;;;;5083904;28;20401;-66
2022/09/28 04:03:28;;;;;;;;;;;7.60;99.90;;;;;;5089372;28;20370;-66
2022/09/28 04:05:55;;;;;;;;;;;7.60;99.90;;;;;;5084666;28;20309;-67
2022/09/28 04:08:22;;;;;;;;;;;7.50;99.90;;;;;;5080569;28;19925;-65
2022/09/28 04:10:48;;;;;;;;;;;7.50;99.90;;;;;;5088471;28;19924;-65
2022/09/28 04:13:16;;;;;;;;;;;7.50;99.90;;;;;;5087480;28;19928;-65
2022/09/28 04:15:43;;;;;;;;;;;7.50;99.90;;;;;;5088520;28;19978;-66
2022/09/28 04:18:10;;;;;;;;;;;7.50;99.90;;;;;;5090638;28;19955;-65
2022/09/28 04:20:39;;;;;;;;;;;7.30;99.90;;;;;;5093396;28;19931;-66
2022/09/28 04:23:06;;;;;;;;;;;7.20;99.90;;;;;;5091121;28;20412;-66
2022/09/28 04:25:33;;;;;;;;;;;7.20;99.90;;;;;;5085023;28;20003;-66
2022/09/28 04:30:46;;;;;;;;;;;7.20;99.90;;;;;;5084458;28;19991;-66
2022/09/28 04:33:12;;;;;;;;;;;7.20;99.90;;;;;;5083565;28;20311;-67
2022/09/28 04:35:39;;;;;;;;;;;7.10;99.90;;;;;;5080968;28;19924;-67
2022/09/28 04:38:06;;;;;;;;;;;7.10;99.90;;;;;;5083276;28;19932;-66
2022/09/28 04:40:32;;;;;;;;;;;7.10;99.90;;;;;;5082178;28;19931;-66
2022/09/28 04:42:59;;;;;;;;;;;7.10;99.90;;;;;;5083599;28;19930;-67
2022/09/28 04:45:26;;;;;;;;;;;7.10;99.90;;;;;;5082678;28;20003;-66
2022/09/28 04:47:54;;;;;;;;;;;7.10;99.90;;;;;;5086095;28;19963;-66
2022/09/28 04:50:21;;;;;;;;;;;7.10;99.90;;;;;;5086232;28;19924;-66
2022/09/28 04:52:47;;;;;;;;;;;7.10;99.90;;;;;;5076746;28;19925;-67
2022/09/28 04:55:14;;;;;;;;;;;7.00;99.90;;;;;;5082261;28;20480;-67
2022/09/28 04:57:41;;;;;;;;;;;7.00;99.90;;;;;;5083436;28;19931;-66
2022/09/28 05:00:09;;;;;;;;;;;6.90;99.90;;;;;;5075473;28;19932;-66
2022/09/28 05:02:36;;;;;;;;;;;6.90;99.90;;;;;;5081673;28;20426;-67
2022/09/28 05:05:04;;;;;;;;;;;6.90;99.90;;;;;;5082710;28;19936;-67
2022/09/28 05:07:31;;;;;;;;;;;6.80;99.90;;;;;;5079124;28;19924;-66
2022/09/28 05:09:57;;;;;;;;;;;6.80;99.90;;;;;;5083822;28;19943;-66
2022/09/28 05:12:24;;;;;;;;;;;6.70;99.90;;;;;;5078612;28;19924;-67
2022/09/28 05:14:51;;;;;;;;;;;6.80;99.90;;;;;;5084241;28;20293;-66
2022/09/28 05:17:17;;;;;;;;;;;6.70;99.90;;;;;;5089577;28;19924;-66
2022/09/28 05:19:44;;;;;;;;;;;6.60;99.90;;;;;;5091475;28;19948;-67
2022/09/28 05:22:13;;;;;;;;;;;6.60;99.90;;;;;;5086863;28;20413;-67
2022/09/28 05:24:40;;;;;;;;;;;6.60;99.90;;;;;;5085574;28;19928;-66
2022/09/28 05:27:06;;;;;;;;;;;6.50;99.90;;;;;;5082755;28;19956;-67
2022/09/28 05:29:33;;;;;;;;;;;6.50;99.90;;;;;;5087088;28;19924;-66
2022/09/28 05:32:01;;;;;;;;;;;6.50;99.90;;;;;;5089870;28;19931;-66
2022/09/28 05:34:27;;;;;;;;;;;6.50;99.90;;;;;;5087864;28;19932;-67
2022/09/28 05:36:54;;;;;;;;;;;6.50;99.90;;;;;;5086789;28;19925;-66
2022/09/28 05:39:22;;;;;;;;;;;6.40;99.90;;;;;;5088442;28;20192;-67
2022/09/28 05:41:49;;;;;;;;;;;6.40;99.90;;;;;;5087563;28;19925;-67
2022/09/28 05:44:15;;;;;;;;;;;6.50;99.90;;;;;;5088331;28;19924;-67
2022/09/28 05:46:42;;;;;;;;;;;6.50;99.90;;;;;;5080633;28;21934;-66
2022/09/28 05:49:08;;;;;;;;;;;6.50;99.90;;;;;;5090712;28;19999;-67
2022/09/28 05:51:35;;;;;;;;;;;6.50;99.90;;;;;;5093781;28;20027;-70
2022/09/28 05:54:02;;;;;;;;;;;6.50;99.90;;;;;;5087105;28;19924;-67
2022/09/28 05:56:31;;;;;;;;;;;6.50;99.90;;;;;;5092853;28;20003;-67
2022/09/28 05:58:58;;;;;;;;;;;6.50;99.90;;;;;;5074566;28;19924;-66
2022/09/28 06:01:25;;;;;;;;;;;6.50;99.90;;;;;;5086211;28;19976;-66
2022/09/28 06:03:52;;;;;;;;;;;6.60;99.90;;;;;;5089788;28;19985;-66
2022/09/28 06:06:18;;;;;;;;;;;6.60;99.90;;;;;;5073419;28;20302;-67
2022/09/28 06:08:47;;;;;;;;;;;6.60;99.90;;;;;;5081366;28;20306;-66
2022/09/28 06:11:13;;;;;;;;;;;6.60;99.90;;;;;;5079492;28;19924;-66
2022/09/28 06:13:41;;;;;;;;;;;6.70;99.90;;;;;;5076478;28;19928;-66
2022/09/28 06:16:09;;;;;;;;;;;6.70;99.90;;;;;;5073907;28;19950;-67
2022/09/28 06:18:36;;;;;;;;;;;6.80;99.90;;;;;;5085578;28;19924;-66
2022/09/28 06:21:04;;;;;;;;;;;6.80;99.90;;;;;;5078802;28;20349;-66
2022/09/28 06:23:31;;;;;;;;;;;6.90;99.90;;;;;;5087731;28;20016;-66
2022/09/28 06:25:58;;;;;;;;;;;6.90;99.90;;;;;;5080113;28;19924;-66
2022/09/28 06:28:25;;;;;;;;;;;7.00;99.90;;;;;;5083857;28;19932;-66
2022/09/28 06:30:53;;;;;;;;;;;7.10;99.90;;;;;;5080502;28;19932;-66
2022/09/28 06:33:20;;;;;;;;;;;7.10;99.90;;;;;;5076862;28;20370;-66
2022/09/28 06:35:47;;;;;;;;;;;7.20;99.90;;;;;;5082032;28;19928;-68
2022/09/28 06:38:14;;;;;;;;;;;7.30;99.90;;;;;;5077280;28;19924;-67
2022/09/28 06:40:40;;;;;;;;;;;7.40;99.90;;;;;;5081048;28;19955;-67
2022/09/28 06:43:09;;;;;;;;;;;7.50;99.90;;;;;;5077000;28;19960;-68
2022/09/28 06:45:36;;;;;;;;;;;7.60;99.90;;;;;;5081368;28;19928;-68
2022/09/28 06:48:05;;;;;;;;;;;7.60;99.90;;;;;;5082386;28;19928;-68
2022/09/28 06:50:33;;;;;;;;;;;7.60;99.90;;;;;;5076510;28;19933;-68
2022/09/28 06:53:00;;;;;;;;;;;7.60;99.90;;;;;;5074160;28;19932;-68
2022/09/28 06:55:27;;;;;;;;;;;7.70;99.90;;;;;;5084659;28;19928;-68
2022/09/28 06:57:57;;;;;;;;;;;7.70;99.90;;;;;;5082294;28;19923;-67
2022/09/28 07:00:24;;;;;;;;;;;7.80;99.90;;;;;;5085148;28;19923;-68
2022/09/28 07:02:51;;;;;;;;;;;7.90;99.90;;;;;;5082850;28;19924;-67
2022/09/28 07:05:23;;;;;;;;;;;8.00;99.90;;;;;;5082139;28;19924;-66
2022/09/28 07:07:49;;;;;;;;;;;8.00;99.90;;;;;;5087777;28;19951;-67
2022/09/28 07:10:16;;;;;;;;;;;8.10;99.90;;;;;;5081921;28;19924;-67
2022/09/28 07:12:43;;;;;;;;;;;8.20;99.90;;;;;;5077725;28;19930;-67
2022/09/28 07:15:10;;;;;;;;;;;8.30;99.90;;;;;;5083799;28;20011;-66
2022/09/28 07:17:37;;;;;;;;;;;8.40;99.90;;;;;;5081228;28;20011;-70
2022/09/28 07:20:04;;;;;;;;;;;8.50;99.90;;;;;;5073125;28;19971;-67
2022/09/28 07:22:33;;;;;;;;;;;8.50;99.90;;;;;;5081938;28;19967;-67
2022/09/28 07:25:00;;;;;;;;;;;8.60;99.90;;;;;;5083395;28;19930;-67
2022/09/28 07:27:27;;;;;;;;;;;8.70;99.90;;;;;;5077744;28;19932;-66
2022/09/28 07:29:53;;;;;;;;;;;8.80;99.90;;;;;;5074206;28;19932;-66
2022/09/28 07:32:20;;;;;;;;;;;9.00;99.90;;;;;;5071462;28;19928;-67
2022/09/28 07:34:47;;;;;;;;;;;10.50;99.90;;;;;;5079328;28;19931;-66
2022/09/28 07:37:14;;;;;;;;;;;12.10;99.90;;;;;;5082687;28;19966;-66
2022/09/28 07:42:28;;;;;;;;;;;14.20;99.90;;;;;;5080058;28;19943;-67
2022/09/28 07:44:55;;;;;;;;;;;13.80;99.90;;;;;;5080502;28;19928;-67
2022/09/28 07:47:25;;;;;;;;;;;14.50;99.90;;;;;;5080723;28;20013;-68
2022/09/28 07:49:53;;;;;;;;;;;14.50;99.90;;;;;;5079796;28;20353;-67
2022/09/28 07:52:23;;;;;;;;;;;14.70;99.90;;;;;;5074410;28;19940;-67
2022/09/28 07:54:52;;;;;;;;;;;15.30;99.90;;;;;;5084453;28;19971;-67
2022/09/28 07:57:19;;;;;;;;;;;15.10;99.90;;;;;;5078533;28;20021;-66
2022/09/28 07:59:46;;;;;;;;;;;15.00;99.90;;;;;;5080860;28;19930;-66
2022/09/28 08:02:13;;;;;;;;;;;15.60;99.90;;;;;;5080552;28;19924;-66
2022/09/28 08:04:40;;;;;;;;;;;15.10;99.90;;;;;;5074206;28;20015;-67
2022/09/28 08:07:08;;;;;;;;;;;15.20;99.90;;;;;;5076681;28;19931;-67
2022/09/28 08:09:35;;;;;;;;;;;15.10;99.90;;;;;;5078403;28;19924;-67
2022/09/28 08:12:04;;;;;;;;;;;15.50;99.90;;;;;;5082066;28;19924;-67
2022/09/28 08:14:32;;;;;;;;;;;15.80;99.90;;;;;;5074973;28;19925;-67
2022/09/28 08:16:59;;;;;;;;;;;16.40;99.90;;;;;;5075066;28;20019;-66
2022/09/28 08:19:25;;;;;;;;;;;16.90;99.90;;;;;;5083483;28;20318;-70
2022/09/28 08:21:51;;;;;;;;;;;17.60;99.10;;;;;;5081907;28;19933;-69
2022/09/28 08:24:18;;;;;;;;;;;19.00;96.00;;;;;;5083191;28;19932;-69
2022/09/28 08:26:45;;;;;;;;;;;19.20;92.50;;;;;;5081734;28;19931;-69
2022/09/28 08:29:14;;;;;;;;;;;18.70;92.70;;;;;;5074361;28;20066;-71
2022/09/28 08:31:40;;;;;;;;;;;18.70;92.90;;;;;;5076072;28;19936;-69
2022/09/28 08:34:07;;;;;;;;;;;19.10;92.50;;;;;;5080705;28;19931;-70
2022/09/28 08:36:34;;;;;;;;;;;19.40;91.80;;;;;;5086989;28;19932;-70
2022/09/28 08:39:00;;;;;;;;;;;19.00;90.90;;;;;;5080147;28;19968;-69
2022/09/28 08:41:34;;;;;;;;;;;18.60;92.40;;;;;;5085754;28;20024;-68
2022/09/28 08:44:08;;;;;;;;;;;19.20;91.40;;;;;;5074511;28;19931;-66
2022/09/28 08:46:37;;;;;;;;;;;19.60;90.70;;;;;;5076424;28;19963;-69
2022/09/28 08:49:08;;;;;;;;;;;20.30;89.00;;;;;;5073440;28;19924;-65
2022/09/28 08:51:37;;;;;;;;;;;21.00;86.10;;;;;;5074763;28;19925;-68
2022/09/28 08:54:06;;;;;;;;;;;19.60;83.80;;;;;;5076021;28;20300;-70
2022/09/28 08:56:38;;;;;;;;;;;18.30;87.60;;;;;;5089901;28;19924;-69
2022/09/28 08:59:09;;;;;;;;;;;18.00;90.20;;;;;;5080518;28;19932;-70
2022/09/28 09:01:38;;;;;;;;;;;18.40;90.40;;;;;;5091368;28;20028;-71
2022/09/28 09:04:06;;;;;;;;;;;18.60;90.00;;;;;;5082050;28;19931;-70
2022/09/28 09:06:36;;;;;;;;;;;19.10;90.50;;;;;;5085400;28;20015;-69
2022/09/28 09:09:07;;;;;;;;;;;19.90;89.60;;;;;;5074165;28;19931;-70
2022/09/28 09:11:43;;;;;;;;;;;19.20;86.30;;;;;;5086017;28;20011;-70
2022/09/28 09:14:19;;;;;;;;;;;18.10;90.50;;;;;;5074224;28;20354;-72
2022/09/28 09:16:55;;;;;;;;;;;17.60;92.30;;;;;;5087699;28;19932;-71
2022/09/28 09:19:31;;;;;;;;;;;17.40;93.30;;;;;;5074089;28;19931;-72
2022/09/28 09:22:00;;;;;;;;;;;17.70;92.70;;;;;;5092779;28;19931;-70
2022/09/28 09:24:27;;;;;;;;;;;17.20;93.50;;;;;;5089234;28;19951;-72
2022/09/28 09:27:04;;;;;;;;;;;16.20;95.10;;;;;;5088765;28;20003;-72
2022/09/28 09:29:36;;;;;;;;;;;15.70;96.60;;;;;;5078182;28;19928;-72
2022/09/28 09:32:11;;;;;;;;;;;15.70;99.00;;;;;;5092090;28;19953;-70
2022/09/28 09:34:57;;;;;;;;;;;15.80;99.20;;;;;;5091235;28;19931;-71
2022/09/28 09:37:28;;;;;;;;;;;15.90;99.50;;;;;;5087709;28;19968;-68
2022/09/28 09:40:04;;;;;;;;;;;16.60;98.20;;;;;;5079286;28;20001;-69
2022/09/28 09:42:37;;;;;;;;;;;17.50;93.90;;;;;;5074044;28;20321;-69
2022/09/28 09:45:17;;;;;;;;;;;17.90;93.60;;;;;;5082311;28;19924;-67
2022/09/28 09:47:48;;;;;;;;;;;18.40;92.60;;;;;;5086811;28;19924;-67
2022/09/28 09:50:23;;;;;;;;;;;18.40;91.70;;;;;;5078487;28;20307;-67
2022/09/28 09:52:54;;;;;;;;;;;18.40;92.10;;;;;;5072835;28;19932;-66
2022/09/28 09:55:24;;;;;;;;;;;18.60;91.50;;;;;;5073526;28;19925;-68
2022/09/28 09:57:52;;;;;;;;;;;17.30;92.30;;;;;;5079024;28;20437;-67
2022/09/28 10:00:19;;;;;;;;;;;16.80;94.60;;;;;;5083926;28;20018;-68
2022/09/28 10:02:48;;;;;;;;;;;16.20;95.60;;;;;;5080800;28;20012;-68
2022/09/28 10:05:18;;;;;;;;;;;15.90;97.70;;;;;;5072412;28;19925;-68
2022/09/28 10:07:46;;;;;;;;;;;15.90;99.20;;;;;;5080398;28;20014;-68
2022/09/28 10:10:15;;;;;;;;;;;15.60;99.90;;;;;;5081596;28;19956;-69
2022/09/28 10:12:42;;;;;;;;;;;15.20;99.90;;;;;;5080171;28;19928;-71
2022/09/28 10:15:13;;;;;;;;;;;14.70;99.90;;;;;;5084406;28;19931;-69
2022/09/28 10:17:41;;;;;;;;;;;14.60;99.90;;;;;;5087225;28;19972;-69
2022/09/28 10:20:13;;;;;;;;;;;14.30;99.90;;;;;;5084653;28;19971;-70
2022/09/28 10:22:40;;;;;;;;;;;14.40;99.90;;;;;;5081368;28;19929;-68
2022/09/28 10:25:08;;;;;;;;;;;14.60;99.90;;;;;;5082572;28;20034;-69
2022/09/28 10:27:38;;;;;;;;;;;14.60;99.90;;;;;;5075031;28;19931;-69
2022/09/28 10:30:12;;;;;;;;;;;14.40;99.90;;;;;;5082127;28;19985;-69
2022/09/28 10:32:40;;;;;;;;;;;14.40;99.90;;;;;;5080651;28;19994;-67
2022/09/28 10:35:21;;;;;;;;;;;14.50;99.90;;;;;;5073657;28;19931;-69
2022/09/28 10:37:51;;;;;;;;;;;14.50;99.90;;;;;;5083191;28;20389;-70
2022/09/28 10:40:29;;;;;;;;;;;14.50;99.90;;;;;;5082294;28;20392;-70
2022/09/28 10:43:02;;;;;;;;;;;14.50;99.90;;;;;;5078253;28;19930;-69
2022/09/28 10:45:33;;;;;;;;;;;14.70;99.90;;;;;;5081829;28;20449;-67
2022/09/28 10:48:02;;;;;;;;;;;15.00;99.90;;;;;;5084131;28;20026;-70
2022/09/28 10:50:31;;;;;;;;;;;15.10;99.90;;;;;;5082987;28;19931;-69
2022/09/28 10:53:10;;;;;;;;;;;15.00;99.90;;;;;;5072354;28;20427;-69
2022/09/28 10:55:37;;;;;;;;;;;15.10;99.90;;;;;;5076005;28;19969;-74
2022/09/28 10:58:22;;;;;;;;;;;15.10;99.90;;;;;;5090263;28;19924;-69
2022/09/28 11:00:49;;;;;;;;;;;14.90;99.50;;;;;;5085780;28;20379;-69
2022/09/28 11:03:18;;;;;;;;;;;15.00;99.50;;;;;;5076821;28;20367;-69
2022/09/28 11:05:54;;;;;;;;;;;15.00;99.70;;;;;;5076194;28;20453;-69
2022/09/28 11:08:23;;;;;;;;;;;15.20;97.90;;;;;;5072693;28;19935;-69
2022/09/28 11:11:00;;;;;;;;;;;15.20;97.20;;;;;;5083875;28;20007;-68
2022/09/28 11:13:27;;;;;;;;;;;15.40;97.50;;;;;;5072415;28;19924;-68
2022/09/28 11:15:54;;;;;;;;;;;15.40;97.20;;;;;;5088737;28;19934;-68
2022/09/28 11:18:26;;;;;;;;;;;15.40;96.50;;;;;;5075404;28;19931;-68
2022/09/28 11:21:06;;;;;;;;;;;15.40;96.30;;;;;;5077823;28;20468;-69
2022/09/28 11:23:33;;;;;;;;;;;15.30;96.60;;;;;;5078633;28;20398;-69
2022/09/28 11:26:02;;;;;;;;;;;15.30;97.00;;;;;;5085330;28;20314;-67
2022/09/28 11:28:32;;;;;;;;;;;15.70;97.20;;;;;;5080556;28;19924;-68
2022/09/28 11:31:00;;;;;;;;;;;15.80;96.40;;;;;;5081240;28;19924;-68
2022/09/28 11:33:32;;;;;;;;;;;15.80;95.60;;;;;;5078977;28;20382;-68
2022/09/28 11:36:05;;;;;;;;;;;16.00;95.10;;;;;;5075711;28;19925;-68
2022/09/28 11:38:33;;;;;;;;;;;16.10;95.00;;;;;;5076107;28;19947;-68
2022/09/28 11:41:16;;;;;;;;;;;16.20;94.50;;;;;;5079708;28;19929;-67
2022/09/28 11:43:51;;;;;;;;;;;16.30;94.50;;;;;;5087353;28;20007;-68
2022/09/28 11:46:24;;;;;;;;;;;16.20;93.60;;;;;;5074983;28;20375;-69
2022/09/28 11:48:53;;;;;;;;;;;16.40;93.20;;;;;;5077879;28;19924;-68
2022/09/28 11:51:23;;;;;;;;;;;16.30;93.70;;;;;;5085902;28;19952;-67
2022/09/28 11:53:52;;;;;;;;;;;16.10;94.00;;;;;;5081594;28;20333;-68
2022/09/28 11:56:25;;;;;;;;;;;15.90;93.20;;;;;;5074629;28;19924;-68
2022/09/28 11:58:55;;;;;;;;;;;15.40;92.90;;;;;;5071117;28;19955;-69
2022/09/28 12:01:25;;;;;;;;;;;14.90;93.50;;;;;;5078113;28;19930;-70
2022/09/28 12:03:54;;;;;;;;;;;14.60;94.20;;;;;;5077787;28;20007;-70
2022/09/28 12:06:25;;;;;;;;;;;14.70;94.10;;;;;;5081827;28;20032;-70
2022/09/28 12:08:54;;;;;;;;;;;14.60;93.30;;;;;;5072402;28;19971;-67
2022/09/28 12:11:23;;;;;;;;;;;15.00;93.70;;;;;;5083128;28;20015;-68
2022/09/28 12:13:51;;;;;;;;;;;15.40;93.00;;;;;;5078133;28;19932;-66
2022/09/28 12:16:21;;;;;;;;;;;15.80;92.60;;;;;;5084900;28;19975;-68
2022/09/28 12:18:50;;;;;;;;;;;16.10;92.10;;;;;;5074113;28;20276;-70
2022/09/28 12:21:34;;;;;;;;;;;16.00;91.20;;;;;;5073526;28;20007;-68
2022/09/28 12:24:04;;;;;;;;;;;15.50;91.90;;;;;;5070746;28;20383;-68
2022/09/28 12:26:33;;;;;;;;;;;15.20;93.00;;;;;;5072047;28;19924;-68
2022/09/28 12:29:05;;;;;;;;;;;15.10;94.00;;;;;;5077831;28;19955;-67
2022/09/28 12:31:34;;;;;;;;;;;15.10;94.90;;;;;;5084757;28;19936;-67
2022/09/28 12:34:02;;;;;;;;;;;15.20;96.20;;;;;;5077967;28;20035;-68
2022/09/28 12:36:40;;;;;;;;;;;15.30;96.50;;;;;;5082466;28;20463;-70
2022/09/28 12:39:14;;;;;;;;;;;15.10;96.50;;;;;;5073828;28;19924;-69
2022/09/28 12:41:48;;;;;;;;;;;15.10;97.30;;;;;;5082251;28;20003;-69
2022/09/28 12:44:23;;;;;;;;;;;15.00;97.60;;;;;;5083319;28;20457;-68
2022/09/28 12:46:57;;;;;;;;;;;15.30;97.70;;;;;;5076075;28;19935;-68
2022/09/28 12:49:41;;;;;;;;;;;15.60;97.00;;;;;;5082176;28;19982;-67
2022/09/28 12:52:16;;;;;;;;;;;15.80;96.90;;;;;;5074894;28;20000;-67
2022/09/28 12:54:53;;;;;;;;;;;16.00;96.30;;;;;;5086418;28;20015;-69
2022/09/28 12:57:30;;;;;;;;;;;16.00;95.20;;;;;;5082426;28;19931;-68
2022/09/28 12:59:59;;;;;;;;;;;15.80;94.00;;;;;;5080821;28;19938;-67
2022/09/28 13:02:43;;;;;;;;;;;15.60;94.80;;;;;;5077099;28;20396;-67
2022/09/28 13:05:18;;;;;;;;;;;15.60;94.80;;;;;;5078990;28;20298;-67
2022/09/28 13:07:52;;;;;;;;;;;15.50;95.80;;;;;;5083198;28;19924;-69
2022/09/28 13:10:25;;;;;;;;;;;15.00;96.70;;;;;;5074473;28;19936;-69
2022/09/28 13:13:08;;;;;;;;;;;14.60;98.90;;;;;;5081164;28;19924;-70
2022/09/28 13:15:39;;;;;;;;;;;14.00;99.90;;;;;;5083935;28;20342;-69
2022/09/28 13:18:11;;;;;;;;;;;14.00;99.90;;;;;;5086264;28;20522;-69
2022/09/28 13:20:39;;;;;;;;;;;14.00;99.90;;;;;;5086731;28;20387;-69
2022/09/28 13:23:15;;;;;;;;;;;14.00;99.90;;;;;;5085858;28;19924;-69
2022/09/28 13:25:46;;;;;;;;;;;14.10;99.90;;;;;;5074985;28;20461;-70
2022/09/28 13:28:14;;;;;;;;;;;13.90;99.90;;;;;;5082508;28;20541;-70
2022/09/28 13:30:44;;;;;;;;;;;13.80;99.90;;;;;;5089383;28;20007;-69
2022/09/28 13:36:29;;;;;;;;;;;13.80;99.90;;;;;;5131621;22;19971;-70
2022/09/28 13:39:00;;;;;;;;;;;13.60;99.90;;;;;;5064059;28;19932;-70
2022/09/28 13:41:35;;;;;;;;;;;13.80;99.90;;;;;;5073958;28;19925;-70
2022/09/28 13:44:19;;;;;;;;;;;13.60;99.90;;;;;;5069899;28;19925;-71
2022/09/28 13:46:48;;;;;;;;;;;13.70;99.90;;;;;;5069239;28;19928;-70
2022/09/28 13:49:18;;;;;;;;;;;13.90;99.90;;;;;;5068596;28;20300;-69
2022/09/28 13:52:02;;;;;;;;;;;14.00;99.90;;;;;;5071758;28;19924;-69
2022/09/28 13:54:43;;;;;;;;;;;14.00;99.90;;;;;;5072975;28;19924;-71
2022/09/28 13:57:16;;;;;;;;;;;14.00;99.90;;;;;;5068511;28;19993;-71
2022/09/28 13:59:47;;;;;;;;;;;14.10;99.90;;;;;;5068210;28;19978;-71
2022/09/28 14:02:22;;;;;;;;;;;14.40;99.90;;;;;;5068831;28;20001;-69
2022/09/28 14:04:53;;;;;;;;;;;14.20;99.90;;;;;;5067681;28;19958;-70
2022/09/28 14:07:21;;;;;;;;;;;14.10;99.90;;;;;;5069141;28;20098;-66
2022/09/28 14:10:07;;;;;;;;;;;14.10;99.90;;;;;;5069369;28;19925;-70
2022/09/28 14:12:45;;;;;;;;;;;14.10;99.90;;;;;;5070141;28;20004;-70
2022/09/28 14:15:30;;;;;;;;;;;14.20;99.90;;;;;;5068842;28;19925;-71
2022/09/28 14:18:00;;;;;;;;;;;14.20;99.90;;;;;;5069843;28;19924;-69
2022/09/28 14:20:29;;;;;;;;;;;14.10;99.90;;;;;;5069616;28;19924;-69
2022/09/28 14:23:10;;;;;;;;;;;14.20;99.90;;;;;;5067192;28;19982;-69
2022/09/28 14:25:48;;;;;;;;;;;14.30;99.90;;;;;;5055922;28;19924;-70
2022/09/28 14:28:28;;;;;;;;;;;14.20;99.90;;;;;;5071708;28;20316;-69
2022/09/28 14:30:58;;;;;;;;;;;14.40;99.90;;;;;;5069286;28;19924;-70
2022/09/28 14:33:26;;;;;;;;;;;14.80;99.90;;;;;;5069142;28;19932;-69
2022/09/28 14:35:55;;;;;;;;;;;14.70;99.90;;;;;;5065287;28;20697;-69
2022/09/28 14:41:12;;;;;;;;;;;15.00;99.90;;;;;;5068792;28;20395;-69
2022/09/28 14:43:57;;;;;;;;;;;15.00;99.90;;;;;;5070703;28;19925;-69
2022/09/28 14:46:28;;;;;;;;;;;15.00;99.90;;;;;;5069194;28;19924;-69
2022/09/28 14:48:56;;;;;;;;;;;14.90;99.90;;;;;;5067738;28;20054;-69
2022/09/28 14:51:42;;;;;;;;;;;14.70;99.90;;;;;;5066056;28;19944;-70